createdAt,value
2017-11-27T00:01:48.330Z,87.24
2017-11-27T00:04:16.248Z,87.10
2017-11-27T00:06:44.158Z,87.00
2017-11-27T00:09:12.084Z,86.91
2017-11-27T00:11:40.089Z,86.93
2017-11-27T00:14:08.022Z,86.75
2017-11-27T00:16:35.951Z,86.92
2017-11-27T00:19:04.261Z,86.94
2017-11-27T00:21:32.181Z,86.81
2017-11-27T00:24:00.485Z,86.42
2017-11-27T00:26:28.411Z,86.59
2017-11-27T00:28:56.334Z,85.96
2017-11-27T00:31:24.256Z,86.29
2017-11-27T00:33:52.169Z,86.56
2017-11-27T00:36:20.124Z,86.37
2017-11-27T00:38:48.033Z,86.24
2017-11-27T00:41:15.974Z,86.11
2017-11-27T00:43:43.881Z,85.81
2017-11-27T00:46:11.794Z,86.09
2017-11-27T00:48:39.718Z,86.89
2017-11-27T00:51:07.621Z,86.38
2017-11-27T00:53:35.937Z,85.95
2017-11-27T00:56:03.846Z,85.66
2017-11-27T00:58:31.770Z,85.72
2017-11-27T01:00:59.725Z,85.88
2017-11-27T01:03:27.658Z,85.44
2017-11-27T01:05:55.955Z,85.74
2017-11-27T01:08:23.867Z,85.21
2017-11-27T01:10:51.786Z,85.35
2017-11-27T01:13:19.712Z,85.86
2017-11-27T01:15:47.650Z,85.74
2017-11-27T01:18:15.610Z,85.01
2017-11-27T01:20:43.525Z,85.24
2017-11-27T01:23:11.459Z,84.83
2017-11-27T01:25:39.465Z,84.89
2017-11-27T01:28:07.380Z,84.73
2017-11-27T01:30:35.282Z,84.56
2017-11-27T01:33:03.201Z,85.30
2017-11-27T01:35:31.502Z,85.31
2017-11-27T01:37:59.438Z,85.80
2017-11-27T01:40:27.778Z,85.88
2017-11-27T01:42:55.702Z,85.91
2017-11-27T01:45:23.623Z,85.59
2017-11-27T01:47:51.532Z,85.75
2017-11-27T01:50:19.473Z,85.49
2017-11-27T01:52:47.394Z,85.20
2017-11-27T01:55:15.360Z,85.07
2017-11-27T01:57:43.287Z,84.92
2017-11-27T02:00:11.622Z,84.71
2017-11-27T02:02:39.561Z,84.63
2017-11-27T02:05:07.843Z,84.62
2017-11-27T02:07:35.761Z,84.84
2017-11-27T02:10:03.678Z,84.23
2017-11-27T02:12:31.649Z,84.57
2017-11-27T02:14:59.567Z,84.30
2017-11-27T02:17:27.486Z,84.24
2017-11-27T02:19:55.418Z,84.54
2017-11-27T02:22:23.744Z,84.36
2017-11-27T02:24:51.753Z,84.01
2017-11-27T02:27:19.675Z,83.91
2017-11-27T02:29:47.589Z,83.49
2017-11-27T02:32:15.500Z,83.58
2017-11-27T02:34:43.451Z,83.85
2017-11-27T02:37:11.356Z,83.64
2017-11-27T02:39:39.273Z,83.33
2017-11-27T02:42:07.581Z,83.00
2017-11-27T02:44:35.495Z,82.72
2017-11-27T02:47:03.427Z,82.68
2017-11-27T02:49:31.335Z,82.62
2017-11-27T02:51:59.256Z,82.60
2017-11-27T02:54:27.175Z,82.86
2017-11-27T02:56:55.119Z,82.99
2017-11-27T02:59:23.029Z,82.78
2017-11-27T03:01:51.366Z,82.64
2017-11-27T03:04:19.285Z,82.16
2017-11-27T03:06:48.097Z,81.88
2017-11-27T03:09:16.017Z,82.24
2017-11-27T03:11:43.935Z,82.21
2017-11-27T03:14:11.862Z,82.09
2017-11-27T03:16:40.186Z,82.11
2017-11-27T03:19:08.091Z,81.95
2017-11-27T03:21:36.012Z,81.23
2017-11-27T03:24:03.929Z,81.28
2017-11-27T03:26:31.874Z,81.02
2017-11-27T03:28:59.875Z,81.17
2017-11-27T03:31:28.207Z,81.45
2017-11-27T03:33:56.121Z,81.66
2017-11-27T03:36:24.036Z,81.36
2017-11-27T03:38:51.950Z,81.62
2017-11-27T03:41:19.896Z,81.40
2017-11-27T03:43:47.811Z,80.98
2017-11-27T03:46:16.119Z,81.16
2017-11-27T03:48:44.027Z,81.13
2017-11-27T03:51:11.953Z,81.34
2017-11-27T03:53:39.915Z,81.45
2017-11-27T03:56:07.870Z,81.28
2017-11-27T03:58:35.798Z,81.07
2017-11-27T04:01:03.716Z,80.90
2017-11-27T04:03:31.710Z,81.03
2017-11-27T04:05:59.626Z,80.87
2017-11-27T04:08:27.967Z,80.64
2017-11-27T04:10:55.903Z,80.46
2017-11-27T04:13:23.846Z,80.79
2017-11-27T04:15:52.154Z,81.18
2017-11-27T04:18:20.173Z,81.36
2017-11-27T04:20:48.096Z,81.57
2017-11-27T04:23:16.018Z,81.71
2017-11-27T04:25:44.325Z,81.72
2017-11-27T04:28:12.238Z,81.37
2017-11-27T04:30:40.190Z,81.05
2017-11-27T04:33:08.101Z,80.73
2017-11-27T04:35:36.407Z,80.52
2017-11-27T04:38:04.338Z,80.55
2017-11-27T04:40:32.654Z,79.93
2017-11-27T04:43:00.573Z,79.86
2017-11-27T04:45:28.516Z,79.88
2017-11-27T04:47:56.483Z,79.88
2017-11-27T04:50:24.393Z,80.23
2017-11-27T04:52:52.702Z,79.84
2017-11-27T04:55:20.625Z,79.75
2017-11-27T04:57:48.536Z,79.99
2017-11-27T05:00:16.455Z,80.49
2017-11-27T05:02:44.395Z,80.77
2017-11-27T05:05:12.313Z,80.90
2017-11-27T05:07:40.631Z,81.09
2017-11-27T05:10:08.598Z,81.42
2017-11-27T05:12:36.565Z,80.86
2017-11-27T05:15:04.473Z,80.93
2017-11-27T05:17:32.401Z,81.69
2017-11-27T05:20:00.372Z,81.73
2017-11-27T05:22:28.282Z,82.07
2017-11-27T05:24:56.405Z,82.23
2017-11-27T05:27:24.346Z,82.42
2017-11-27T05:29:52.817Z,82.71
2017-11-27T05:32:20.750Z,83.37
2017-11-27T05:34:48.673Z,83.58
2017-11-27T05:37:16.993Z,83.81
2017-11-27T05:39:44.922Z,84.42
2017-11-27T05:42:12.858Z,84.63
2017-11-27T05:44:40.792Z,84.25
2017-11-27T05:47:08.857Z,83.95
2017-11-27T05:49:36.774Z,84.17
2017-11-27T05:52:04.694Z,83.57
2017-11-27T05:54:32.829Z,83.94
2017-11-27T05:57:01.158Z,83.86
2017-11-27T05:59:29.064Z,83.81
2017-11-27T06:01:56.994Z,84.34
2017-11-27T06:04:25.028Z,84.10
2017-11-27T06:06:52.999Z,84.30
2017-11-27T06:09:20.949Z,85.14
2017-11-27T06:11:49.357Z,86.17
2017-11-27T06:14:17.266Z,87.07
2017-11-27T06:16:45.194Z,86.10
2017-11-27T06:19:13.119Z,86.02
2017-11-27T06:21:41.026Z,86.57
2017-11-27T06:24:08.985Z,86.65
2017-11-27T06:26:37.099Z,87.19
2017-11-27T06:29:05.009Z,87.87
2017-11-27T06:31:33.330Z,87.86
2017-11-27T06:34:01.228Z,87.97
2017-11-27T06:36:29.170Z,88.15
2017-11-27T06:38:57.074Z,88.55
2017-11-27T06:41:24.987Z,88.85
2017-11-27T06:43:52.912Z,88.65
2017-11-27T06:46:20.846Z,88.70
2017-11-27T06:48:48.749Z,88.68
2017-11-27T06:51:16.724Z,88.55
2017-11-27T06:53:44.641Z,88.60
2017-11-27T06:56:12.576Z,88.46
2017-11-27T06:58:40.920Z,88.66
2017-11-27T07:01:08.829Z,88.59
2017-11-27T07:03:36.764Z,88.61
2017-11-27T07:06:04.670Z,88.93
2017-11-27T07:08:32.599Z,88.76
2017-11-27T07:11:00.766Z,88.76
2017-11-27T07:13:28.688Z,88.97
2017-11-27T07:15:56.617Z,88.86
2017-11-27T07:18:24.546Z,89.04
2017-11-27T07:20:52.463Z,88.65
2017-11-27T07:23:20.817Z,88.13
2017-11-27T07:25:48.741Z,87.85
2017-11-27T07:28:16.653Z,87.94
2017-11-27T07:30:44.568Z,87.41
2017-11-27T07:33:12.490Z,85.35
2017-11-27T07:35:40.419Z,82.88
2017-11-27T07:38:13.805Z,79.68
2017-11-27T07:40:41.738Z,77.95
2017-11-27T07:43:10.116Z,75.94
2017-11-27T07:45:38.459Z,73.92
2017-11-27T07:48:06.393Z,72.21
2017-11-27T07:50:34.316Z,70.49
2017-11-27T07:53:02.233Z,69.56
2017-11-27T07:55:30.261Z,67.49
2017-11-27T07:57:58.173Z,65.86
2017-11-27T08:00:26.195Z,65.35
2017-11-27T08:02:54.097Z,63.74
2017-11-27T08:05:22.045Z,61.28
2017-11-27T08:07:50.346Z,59.46
2017-11-27T08:10:18.277Z,60.94
2017-11-27T08:12:46.202Z,63.20
2017-11-27T08:15:14.113Z,63.75
2017-11-27T08:17:42.041Z,62.55
2017-11-27T08:20:09.957Z,61.96
2017-11-27T08:22:37.878Z,62.49
2017-11-27T08:25:05.856Z,60.40
2017-11-27T08:27:33.764Z,59.45
2017-11-27T08:30:02.093Z,57.78
2017-11-27T08:32:30.029Z,56.16
2017-11-27T08:34:58.344Z,55.47
2017-11-27T08:37:26.272Z,55.04
2017-11-27T08:39:54.227Z,53.27
2017-11-27T08:42:22.556Z,56.32
2017-11-27T08:44:50.475Z,58.01
2017-11-27T08:47:18.863Z,56.95
2017-11-27T08:49:47.213Z,58.42
2017-11-27T08:52:15.135Z,60.40
2017-11-27T08:54:43.054Z,62.44
2017-11-27T08:57:10.973Z,64.61
2017-11-27T08:59:38.882Z,67.86
2017-11-27T09:02:06.801Z,68.53
2017-11-27T09:04:34.719Z,69.35
2017-11-27T09:07:02.723Z,71.16
2017-11-27T09:09:31.036Z,71.42
2017-11-27T09:11:58.956Z,72.03
2017-11-27T09:14:27.280Z,72.51
2017-11-27T09:16:55.289Z,73.03
2017-11-27T09:19:23.198Z,73.33
2017-11-27T09:21:51.106Z,73.62
2017-11-27T09:24:19.016Z,73.63
2017-11-27T09:26:47.890Z,73.20
2017-11-27T09:29:16.190Z,73.68
2017-11-27T09:31:44.129Z,73.04
2017-11-27T09:34:12.035Z,73.09
2017-11-27T09:36:39.953Z,73.76
2017-11-27T09:39:07.944Z,73.99
2017-11-27T09:41:36.252Z,74.22
2017-11-27T09:44:04.155Z,74.12
2017-11-27T09:46:32.071Z,73.44
2017-11-27T09:49:00.405Z,73.39
2017-11-27T09:51:28.315Z,73.70
2017-11-27T09:53:56.224Z,74.03
2017-11-27T09:56:24.142Z,74.93
2017-11-27T09:58:52.490Z,74.92
2017-11-27T10:01:20.470Z,75.12
2017-11-27T10:03:48.436Z,74.62
2017-11-27T10:06:16.373Z,74.60
2017-11-27T10:08:44.292Z,74.91
2017-11-27T10:11:12.619Z,74.67
2017-11-27T10:13:40.533Z,74.63
2017-11-27T10:16:08.489Z,74.22
2017-11-27T10:18:36.394Z,73.54
2017-11-27T10:21:04.302Z,73.53
2017-11-27T10:23:32.205Z,72.77
2017-11-27T10:26:00.533Z,72.90
2017-11-27T10:28:28.550Z,72.90
2017-11-27T10:30:56.461Z,73.16
2017-11-27T10:33:24.371Z,72.56
2017-11-27T10:35:52.308Z,72.13
2017-11-27T10:38:20.209Z,71.22
2017-11-27T10:40:48.149Z,70.18
2017-11-27T10:43:16.152Z,69.53
2017-11-27T10:45:44.068Z,68.55
2017-11-27T10:48:12.015Z,67.45
2017-11-27T10:50:39.922Z,65.48
2017-11-27T10:53:07.850Z,64.78
2017-11-27T10:55:36.198Z,65.16
2017-11-27T10:58:04.131Z,65.63
2017-11-27T11:00:37.618Z,66.69
2017-11-27T11:03:05.550Z,67.26
2017-11-27T11:05:33.876Z,67.74
2017-11-27T11:08:01.834Z,68.42
2017-11-27T11:10:29.767Z,68.27
2017-11-27T11:12:57.693Z,68.46
2017-11-27T11:15:25.631Z,68.82
2017-11-27T11:17:53.529Z,69.66
2017-11-27T11:20:21.444Z,70.19
2017-11-27T11:22:49.747Z,70.02
2017-11-27T11:25:17.649Z,70.01
2017-11-27T11:27:45.554Z,69.78
2017-11-27T11:30:13.880Z,69.67
2017-11-27T11:32:41.817Z,69.98
2017-11-27T11:35:09.750Z,69.56
2017-11-27T11:37:37.669Z,70.14
2017-11-27T11:40:05.585Z,70.35
2017-11-27T11:42:33.557Z,69.85
2017-11-27T11:45:01.477Z,69.25
2017-11-27T11:47:29.433Z,69.49
2017-11-27T11:49:57.345Z,70.15
2017-11-27T11:52:25.265Z,69.92
2017-11-27T11:54:53.208Z,69.87
2017-11-27T11:57:21.600Z,69.83
2017-11-27T11:59:49.529Z,69.85
2017-11-27T12:02:17.446Z,70.13
2017-11-27T12:04:45.358Z,70.34
2017-11-27T12:07:13.320Z,70.28
2017-11-27T12:09:41.234Z,69.29
2017-11-27T12:12:09.154Z,70.26
2017-11-27T12:14:37.066Z,70.12
2017-11-27T12:17:05.369Z,70.64
2017-11-27T12:19:33.293Z,69.81
2017-11-27T12:22:01.205Z,69.97
2017-11-27T12:24:29.105Z,69.71
2017-11-27T12:26:57.031Z,69.56
2017-11-27T12:29:24.950Z,69.26
2017-11-27T12:31:52.949Z,69.21
2017-11-27T12:34:20.878Z,68.85
2017-11-27T12:36:49.603Z,69.09
2017-11-27T12:39:17.909Z,69.26
2017-11-27T12:41:45.823Z,69.07
2017-11-27T12:44:13.746Z,69.26
2017-11-27T12:46:41.673Z,68.59
2017-11-27T12:49:09.581Z,67.93
2017-11-27T12:51:37.506Z,68.60
2017-11-27T12:54:05.422Z,68.28
2017-11-27T12:56:33.337Z,68.45
2017-11-27T12:59:01.286Z,69.09
2017-11-27T13:01:29.393Z,69.33
2017-11-27T13:03:57.313Z,68.74
2017-11-27T13:06:25.377Z,68.56
2017-11-27T13:08:53.294Z,68.58
2017-11-27T13:11:21.211Z,68.51
2017-11-27T13:13:49.128Z,69.00
2017-11-27T13:16:17.046Z,68.67
2017-11-27T13:18:44.954Z,68.80
2017-11-27T13:21:12.887Z,68.97
2017-11-27T13:23:40.952Z,68.63
2017-11-27T13:26:08.861Z,68.65
2017-11-27T13:28:36.767Z,68.68
2017-11-27T13:31:05.104Z,69.35
2017-11-27T13:33:32.998Z,69.29
2017-11-27T13:36:00.923Z,70.02
2017-11-27T13:38:28.838Z,70.39
2017-11-27T13:40:57.152Z,72.58
2017-11-27T13:43:25.049Z,73.11
2017-11-27T13:45:52.966Z,74.03
2017-11-27T13:48:20.886Z,74.84
2017-11-27T13:50:48.801Z,75.45
2017-11-27T13:53:16.721Z,75.43
2017-11-27T13:55:44.637Z,76.67
2017-11-27T13:58:12.562Z,79.02
2017-11-27T14:00:40.496Z,80.24
2017-11-27T14:03:08.416Z,80.87
2017-11-27T14:05:36.791Z,82.96
2017-11-27T14:08:04.706Z,82.47
2017-11-27T14:10:32.606Z,83.80
2017-11-27T14:13:00.513Z,85.13
2017-11-27T14:15:28.829Z,86.55
2017-11-27T14:17:56.742Z,86.76
2017-11-27T14:20:25.068Z,87.98
2017-11-27T14:22:52.975Z,88.02
2017-11-27T14:25:21.304Z,88.41
2017-11-27T14:27:49.220Z,89.01
2017-11-27T14:30:17.143Z,89.38
2017-11-27T14:32:45.134Z,89.91
2017-11-27T14:35:13.072Z,90.06
2017-11-27T14:37:40.974Z,91.35
2017-11-27T14:40:08.880Z,91.98
2017-11-27T14:42:36.805Z,91.46
2017-11-27T14:45:04.707Z,91.79
2017-11-27T14:47:33.043Z,92.26
2017-11-27T14:50:00.976Z,92.24
2017-11-27T14:52:28.889Z,92.61
2017-11-27T14:54:56.796Z,92.90
2017-11-27T14:57:25.100Z,92.57
2017-11-27T14:59:53.016Z,92.69
2017-11-27T15:02:21.024Z,92.69
2017-11-27T15:04:48.942Z,93.04
2017-11-27T15:07:16.868Z,93.08
2017-11-27T15:09:44.805Z,93.29
2017-11-27T15:12:12.722Z,93.06
2017-11-27T15:14:40.733Z,93.21
2017-11-27T15:17:08.646Z,93.46
2017-11-27T15:19:36.545Z,93.26
2017-11-27T15:22:04.457Z,93.81
2017-11-27T15:24:32.759Z,93.74
2017-11-27T15:27:00.665Z,93.86
2017-11-27T15:29:28.575Z,93.58
2017-11-27T15:31:56.894Z,93.06
2017-11-27T15:34:24.802Z,93.23
2017-11-27T15:36:52.726Z,93.66
2017-11-27T15:39:20.635Z,93.84
2017-11-27T15:41:48.552Z,93.85
2017-11-27T15:44:16.459Z,93.96
2017-11-27T15:46:44.392Z,94.27
2017-11-27T15:49:12.299Z,93.89
2017-11-27T15:51:40.224Z,94.79
2017-11-27T15:54:08.119Z,94.17
2017-11-27T15:56:36.049Z,94.08
2017-11-27T15:59:03.962Z,94.50
2017-11-27T16:01:31.872Z,94.76
2017-11-27T16:04:00.190Z,94.96
2017-11-27T16:06:28.101Z,94.57
2017-11-27T16:08:56.427Z,94.88
2017-11-27T16:11:24.350Z,94.42
2017-11-27T16:13:52.658Z,94.71
2017-11-27T16:16:20.579Z,94.61
2017-11-27T16:18:48.504Z,94.43
2017-11-27T16:21:16.419Z,94.49
2017-11-27T16:23:44.369Z,94.75
2017-11-27T16:26:12.290Z,95.37
2017-11-27T16:28:40.210Z,95.19
2017-11-27T16:31:08.205Z,95.34
2017-11-27T16:33:36.516Z,95.58
2017-11-27T16:36:04.511Z,95.49
2017-11-27T16:38:32.448Z,95.16
2017-11-27T16:41:00.361Z,95.73
2017-11-27T16:43:28.270Z,95.54
2017-11-27T16:45:56.579Z,95.17
2017-11-27T16:48:24.539Z,95.43
2017-11-27T16:50:52.456Z,95.52
2017-11-27T16:53:20.368Z,95.49
2017-11-27T16:55:48.281Z,95.54
2017-11-27T16:58:16.213Z,95.76
2017-11-27T17:00:44.226Z,95.56
2017-11-27T17:03:12.152Z,95.60
2017-11-27T17:05:40.068Z,95.52
2017-11-27T17:08:07.974Z,95.72
2017-11-27T17:10:35.877Z,96.23
2017-11-27T17:13:03.784Z,96.17
2017-11-27T17:15:32.099Z,96.04
2017-11-27T17:17:59.993Z,95.86
2017-11-27T17:20:27.935Z,96.09
2017-11-27T17:22:55.849Z,96.48
2017-11-27T17:25:23.775Z,96.43
2017-11-27T17:27:51.687Z,96.43
2017-11-27T17:30:19.604Z,96.19
2017-11-27T17:32:47.517Z,96.52
2017-11-27T17:35:15.445Z,96.30
2017-11-27T17:37:43.415Z,96.25
2017-11-27T17:40:11.344Z,96.44
2017-11-27T17:42:39.657Z,96.63
2017-11-27T17:45:07.554Z,96.30
2017-11-27T17:47:35.473Z,96.31
2017-11-27T17:50:04.385Z,96.37
2017-11-27T17:52:32.290Z,96.83
2017-11-27T17:55:00.189Z,96.83
2017-11-27T17:57:28.518Z,96.97
2017-11-27T17:59:56.513Z,96.71
2017-11-27T18:02:24.442Z,96.86
2017-11-27T18:04:52.367Z,96.91
2017-11-27T18:07:20.676Z,97.10
2017-11-27T18:09:48.574Z,97.02
2017-11-27T18:12:16.493Z,97.13
2017-11-27T18:14:44.400Z,97.35
2017-11-27T18:17:12.415Z,97.33
2017-11-27T18:19:40.766Z,96.92
2017-11-27T18:22:08.695Z,97.10
2017-11-27T18:24:36.667Z,97.14
2017-11-27T18:27:04.634Z,97.17
2017-11-27T18:29:32.729Z,97.22
2017-11-27T18:32:00.715Z,97.23
2017-11-27T18:34:28.654Z,96.82
2017-11-27T18:36:56.586Z,97.17
2017-11-27T18:39:24.508Z,97.03
2017-11-27T18:41:52.477Z,97.17
2017-11-27T18:44:20.400Z,97.61
2017-11-27T18:46:48.634Z,97.06
2017-11-27T18:49:16.542Z,97.10
2017-11-27T18:51:44.461Z,97.14
2017-11-27T18:54:12.365Z,97.17
2017-11-27T18:56:40.693Z,97.18
2017-11-27T18:59:08.626Z,97.13
2017-11-27T19:01:36.556Z,97.19
2017-11-27T19:04:04.462Z,97.51
2017-11-27T19:06:32.374Z,97.11
2017-11-27T19:09:00.311Z,97.21
2017-11-27T19:11:28.299Z,96.79
2017-11-27T19:13:56.221Z,96.82
2017-11-27T19:16:24.524Z,96.80
2017-11-27T19:18:52.430Z,97.29
2017-11-27T19:21:20.344Z,97.05
2017-11-27T19:23:48.258Z,97.02
2017-11-27T19:26:16.184Z,96.99
2017-11-27T19:28:44.085Z,96.66
2017-11-27T19:31:11.996Z,97.01
2017-11-27T19:33:40.311Z,97.00
2017-11-27T19:36:08.272Z,97.09
2017-11-27T19:38:36.196Z,97.12
2017-11-27T19:41:04.127Z,97.34
2017-11-27T19:43:32.141Z,97.01
2017-11-27T19:46:00.475Z,96.75
2017-11-27T19:48:28.412Z,96.72
2017-11-27T19:50:56.330Z,96.72
2017-11-27T19:53:24.240Z,96.45
2017-11-27T19:55:52.159Z,96.58
2017-11-27T19:58:20.105Z,96.51
2017-11-27T20:00:48.057Z,96.63
2017-11-27T20:03:15.986Z,96.99
2017-11-27T20:05:43.918Z,96.44
2017-11-27T20:08:11.826Z,96.72
2017-11-27T20:10:39.745Z,96.72
2017-11-27T20:13:07.697Z,96.92
2017-11-27T20:15:35.656Z,96.77
2017-11-27T20:18:03.956Z,97.17
2017-11-27T20:20:31.880Z,96.95
2017-11-27T20:22:59.786Z,97.06
2017-11-27T20:25:27.701Z,96.57
2017-11-27T20:27:55.670Z,96.91
2017-11-27T20:30:23.615Z,97.00
2017-11-27T20:32:51.625Z,96.70
2017-11-27T20:35:19.613Z,96.94
2017-11-27T20:37:47.581Z,97.18
2017-11-27T20:40:15.893Z,97.03
2017-11-27T20:42:43.825Z,97.36
2017-11-27T20:45:11.761Z,96.96
2017-11-27T20:47:39.694Z,96.87
2017-11-27T20:50:07.756Z,96.85
2017-11-27T20:52:35.687Z,96.59
2017-11-27T20:55:03.614Z,96.75
2017-11-27T20:57:31.552Z,96.19
2017-11-27T20:59:59.470Z,96.38
2017-11-27T21:02:27.399Z,96.28
2017-11-27T21:04:55.334Z,96.29
2017-11-27T21:07:23.725Z,96.22
2017-11-27T21:09:52.022Z,95.97
2017-11-27T21:12:19.945Z,96.19
2017-11-27T21:14:47.854Z,95.87
2017-11-27T21:17:16.000Z,95.75
2017-11-27T21:19:44.305Z,95.78
2017-11-27T21:22:12.231Z,95.65
2017-11-27T21:24:40.147Z,95.60
2017-11-27T21:27:08.075Z,95.44
2017-11-27T21:29:36.471Z,95.05
2017-11-27T21:32:04.788Z,94.73
2017-11-27T21:34:32.711Z,95.10
2017-11-27T21:37:01.026Z,95.02
2017-11-27T21:39:28.952Z,94.80
2017-11-27T21:41:57.265Z,94.16
2017-11-27T21:44:25.202Z,94.24
2017-11-27T21:46:53.523Z,94.45
2017-11-27T21:49:21.462Z,93.90
2017-11-27T21:51:49.381Z,94.05
2017-11-27T21:54:17.356Z,94.10
2017-11-27T21:56:45.283Z,93.98
2017-11-27T21:59:13.209Z,93.50
2017-11-27T22:01:41.132Z,93.64
2017-11-27T22:04:09.033Z,93.59
2017-11-27T22:06:36.945Z,93.28
2017-11-27T22:09:04.857Z,93.59
2017-11-27T22:11:32.808Z,93.07
2017-11-27T22:14:00.731Z,93.18
2017-11-27T22:16:29.041Z,93.13
2017-11-27T22:18:56.958Z,93.30
2017-11-27T22:21:24.920Z,92.93
2017-11-27T22:23:52.825Z,92.82
2017-11-27T22:26:20.774Z,92.90
2017-11-27T22:28:49.086Z,93.22
2017-11-27T22:31:16.989Z,93.25
2017-11-27T22:33:44.912Z,93.16
2017-11-27T22:36:12.828Z,92.90
2017-11-27T22:38:40.756Z,93.29
2017-11-27T22:41:08.676Z,93.38
2017-11-27T22:43:36.612Z,93.54
2017-11-27T22:46:04.602Z,93.85
2017-11-27T22:48:32.510Z,94.11
2017-11-27T22:51:00.423Z,94.15
2017-11-27T22:53:28.337Z,94.25
2017-11-27T22:55:56.750Z,94.63
2017-11-27T22:58:24.672Z,95.03
2017-11-27T23:00:52.993Z,95.04
2017-11-27T23:03:20.898Z,94.91
2017-11-27T23:05:48.815Z,95.03
2017-11-27T23:08:16.713Z,94.77
2017-11-27T23:10:44.618Z,95.05
2017-11-27T23:13:12.555Z,95.10
2017-11-27T23:15:40.471Z,95.23
2017-11-27T23:18:08.386Z,95.36
2017-11-27T23:20:36.293Z,95.16
2017-11-27T23:23:04.602Z,95.09
2017-11-27T23:25:32.505Z,95.19
2017-11-27T23:28:00.412Z,95.23
2017-11-27T23:30:28.736Z,95.38
2017-11-27T23:32:56.633Z,95.32
2017-11-27T23:35:24.612Z,95.12
2017-11-27T23:37:52.528Z,95.04
2017-11-27T23:40:20.429Z,94.78
2017-11-27T23:42:48.337Z,95.05
2017-11-27T23:45:16.255Z,95.25
2017-11-27T23:47:44.168Z,94.98
2017-11-27T23:50:12.484Z,95.03
2017-11-27T23:52:40.406Z,94.82
2017-11-27T23:55:08.709Z,95.12
2017-11-27T23:57:36.621Z,94.63
